Time;durP1;ratioP1;P1;durP2;ratioP2;P2;SDS_P1;SDS_P2;PMS_P1;PMS_P2;Temp;Humidity;BMP_temperature;BMP_pressure;BME280_temperature;BME280_humidity;BME280_pressure;Samples;Min_cycle;Max_cycle;Signal;HPM_P1;HPM_P2
2023/05/02 00:00:10;;;;;;;5.68;3.38;;;13.90;78.30;;;;;;4954887;29;20015;-80
2023/05/02 00:02:36;;;;;;;5.88;3.70;;;13.90;78.30;;;;;;4954927;28;20021;-80
2023/05/02 00:05:01;;;;;;;6.07;3.30;;;13.90;78.30;;;;;;4937862;29;20082;-82
2023/05/02 00:07:27;;;;;;;5.85;3.50;;;13.90;78.30;;;;;;4953799;29;20146;-82
2023/05/02 00:09:53;;;;;;;4.53;3.13;;;13.90;78.30;;;;;;4937689;29;20028;-81
2023/05/02 00:12:19;;;;;;;5.93;3.70;;;13.80;78.30;;;;;;4937475;28;20027;-81
2023/05/02 00:14:44;;;;;;;5.65;3.25;;;13.90;78.40;;;;;;4953786;29;20488;-80
2023/05/02 00:17:19;;;;;;;5.65;3.63;;;13.90;78.40;;;;;;4937603;29;20038;-80
2023/05/02 00:19:44;;;;;;;5.40;3.53;;;13.90;78.40;;;;;;4937723;29;20027;-81
2023/05/02 00:22:10;;;;;;;6.57;3.67;;;13.90;78.40;;;;;;4937313;28;20073;-81
2023/05/02 00:24:36;;;;;;;6.25;3.40;;;13.90;78.40;;;;;;4937671;29;20511;-81
2023/05/02 00:27:01;;;;;;;6.32;3.45;;;13.80;78.30;;;;;;4937587;29;20019;-81
2023/05/02 00:29:26;;;;;;;5.95;3.67;;;13.90;78.40;;;;;;4937544;29;20423;-81
2023/05/02 00:31:52;;;;;;;5.50;3.35;;;13.90;78.90;;;;;;4937250;29;20019;-80
2023/05/02 00:34:18;;;;;;;6.55;3.58;;;13.90;78.40;;;;;;4937328;29;20129;-81
2023/05/02 00:36:43;;;;;;;6.32;3.58;;;13.90;78.40;;;;;;4937367;29;20053;-81
2023/05/02 00:39:09;;;;;;;5.35;3.45;;;13.90;78.40;;;;;;4937080;29;20063;-81
2023/05/02 00:41:35;;;;;;;6.63;3.42;;;13.90;78.40;;;;;;4937276;29;20057;-81
2023/05/02 00:44:00;;;;;;;7.13;3.65;;;13.90;78.40;;;;;;4953364;28;20027;-82
2023/05/02 00:46:26;;;;;;;6.78;3.75;;;13.90;78.40;;;;;;4937343;29;20029;-80
2023/05/02 00:48:52;;;;;;;6.63;4.10;;;13.90;78.50;;;;;;4954526;29;20058;-81
2023/05/02 00:51:18;;;;;;;7.05;4.15;;;13.90;78.50;;;;;;4937050;29;20042;-81
2023/05/02 00:53:44;;;;;;;9.18;4.63;;;13.90;78.60;;;;;;4954406;28;20074;-82
2023/05/02 00:56:10;;;;;;;6.90;4.43;;;13.90;78.60;;;;;;4937321;29;20504;-80
2023/05/02 00:58:37;;;;;;;8.98;4.88;;;13.90;78.60;;;;;;4919974;29;20636;-80
2023/05/02 01:01:28;;;;;;;8.13;5.13;;;13.90;78.70;;;;;;4935100;29;20023;-82
2023/05/02 01:04:03;;;;;;;7.60;5.50;;;13.90;78.70;;;;;;4935185;29;20031;-80
2023/05/02 01:06:57;;;;;;;8.60;5.70;;;13.90;78.70;;;;;;4935130;29;20023;-81
2023/05/02 01:09:52;;;;;;;9.55;6.13;;;13.90;79.30;;;;;;4918817;29;20034;-81
2023/05/02 01:12:19;;;;;;;8.70;6.05;;;13.90;78.80;;;;;;4938727;29;20028;-80
2023/05/02 01:14:52;;;;;;;10.57;6.18;;;13.90;78.90;;;;;;4921927;29;20511;-80
2023/05/02 01:17:21;;;;;;;9.77;6.65;;;13.90;78.90;;;;;;4921764;29;20028;-81
2023/05/02 01:19:52;;;;;;;8.73;5.90;;;13.90;78.90;;;;;;4921848;29;20024;-81
2023/05/02 01:22:19;;;;;;;11.27;7.90;;;13.90;78.90;;;;;;4921710;29;20377;-81
2023/05/02 01:25:12;;;;;;;10.73;7.50;;;13.90;79.00;;;;;;4921725;29;20032;-80
2023/05/02 01:27:59;;;;;;;11.18;7.57;;;13.90;79.00;;;;;;4938755;29;20063;-80
2023/05/02 01:30:28;;;;;;;11.77;8.40;;;13.90;79.10;;;;;;4938741;29;20028;-80
2023/05/02 01:32:56;;;;;;;11.73;8.48;;;13.90;79.20;;;;;;4921565;29;20024;-80
2023/05/02 01:35:23;;;;;;;12.35;9.40;;;13.90;79.20;;;;;;4938572;29;20020;-80
2023/05/02 01:37:51;;;;;;;12.77;9.48;;;13.90;79.30;;;;;;4938442;29;20483;-79
2023/05/02 01:40:19;;;;;;;13.02;9.55;;;13.90;79.30;;;;;;4920906;29;20437;-82
2023/05/02 01:42:47;;;;;;;13.10;9.65;;;13.90;79.30;;;;;;4921309;29;20024;-80
2023/05/02 01:45:14;;;;;;;14.18;10.65;;;13.90;79.50;;;;;;4921245;29;20080;-81
2023/05/02 01:47:43;;;;;;;13.68;10.82;;;13.90;79.50;;;;;;4921263;29;20028;-80
2023/05/02 01:50:12;;;;;;;14.45;10.77;;;13.90;79.50;;;;;;4921142;29;20400;-81
2023/05/02 01:52:39;;;;;;;15.40;11.27;;;13.90;79.50;;;;;;4921228;29;20516;-80
2023/05/02 01:55:10;;;;;;;15.63;12.25;;;13.90;79.60;;;;;;4921178;29;20503;-80
2023/05/02 01:57:38;;;;;;;15.80;12.27;;;13.90;79.60;;;;;;4921173;29;20034;-82
2023/05/02 02:00:08;;;;;;;16.85;13.07;;;13.90;79.70;;;;;;4938407;29;20043;-81
2023/05/02 02:02:34;;;;;;;16.20;12.48;;;13.90;79.70;;;;;;4938050;29;20098;-81
2023/05/02 02:05:03;;;;;;;16.85;13.55;;;13.90;79.80;;;;;;4920974;29;20079;-81
2023/05/02 02:07:29;;;;;;;16.60;13.25;;;13.90;79.80;;;;;;4926150;29;20037;-81
2023/05/02 02:09:54;;;;;;;19.33;14.80;;;13.80;79.80;;;;;;4939713;29;20031;-81
2023/05/02 02:12:27;;;;;;;19.40;14.85;;;13.90;79.90;;;;;;4939696;28;20027;-82
2023/05/02 02:15:01;;;;;;;18.60;14.20;;;13.90;79.90;;;;;;4939918;29;20035;-81
2023/05/02 02:17:36;;;;;;;18.15;13.90;;;13.90;79.90;;;;;;4939713;29;20073;-80
2023/05/02 02:20:05;;;;;;;17.40;13.45;;;13.90;80.00;;;;;;4956817;28;20023;-81
2023/05/02 02:22:36;;;;;;;18.90;14.52;;;13.90;80.00;;;;;;4939415;29;20023;-81
2023/05/02 02:25:04;;;;;;;18.85;14.43;;;13.90;80.00;;;;;;4939734;29;20023;-80
2023/05/02 02:27:29;;;;;;;19.75;15.25;;;13.80;80.00;;;;;;4939583;29;20054;-81
2023/05/02 02:29:55;;;;;;;19.48;14.75;;;13.90;80.10;;;;;;4939465;29;20531;-81
2023/05/02 02:32:20;;;;;;;18.55;14.35;;;13.90;80.10;;;;;;4956417;28;20032;-81
2023/05/02 02:34:46;;;;;;;19.67;15.00;;;13.80;80.10;;;;;;4955745;29;20488;-80
2023/05/02 02:37:19;;;;;;;18.45;13.93;;;13.90;80.10;;;;;;4956657;29;20071;-80
2023/05/02 02:40:13;;;;;;;19.85;15.00;;;13.90;80.20;;;;;;4956186;29;20392;-81
2023/05/02 02:42:43;;;;;;;18.95;14.90;;;13.90;80.20;;;;;;4955233;28;20027;-82
2023/05/02 02:45:23;;;;;;;19.45;14.15;;;13.90;80.20;;;;;;4939432;29;20023;-81
2023/05/02 02:48:07;;;;;;;19.63;14.70;;;13.90;80.20;;;;;;4939281;29;20043;-80
2023/05/02 02:50:54;;;;;;;18.75;14.70;;;13.90;80.20;;;;;;4939184;29;20031;-80
2023/05/02 02:53:26;;;;;;;18.88;14.32;;;13.90;80.20;;;;;;4939207;29;20027;-81
2023/05/02 02:55:59;;;;;;;18.30;14.90;;;13.90;80.30;;;;;;4939226;29;20078;-82
2023/05/02 02:59:05;;;;;;;18.27;14.05;;;13.90;80.30;;;;;;4956339;29;20558;-81
2023/05/02 03:01:33;;;;;;;18.88;14.52;;;13.90;80.30;;;;;;4903465;29;20042;-81
2023/05/02 03:04:00;;;;;;;19.63;14.85;;;13.90;80.30;;;;;;4939002;29;20510;-81
2023/05/02 03:06:26;;;;;;;19.98;14.13;;;13.80;80.30;;;;;;4939129;29;20031;-81
2023/05/02 03:08:51;;;;;;;19.70;14.88;;;13.80;80.30;;;;;;4938944;29;20503;-82
2023/05/02 03:11:17;;;;;;;20.25;14.77;;;13.90;80.40;;;;;;4956116;29;20033;-81
2023/05/02 03:13:42;;;;;;;20.60;15.43;;;13.80;80.30;;;;;;4938771;29;20043;-81
2023/05/02 03:16:20;;;;;;;20.23;15.10;;;13.90;80.40;;;;;;4955934;29;20039;-81
2023/05/02 03:18:45;;;;;;;18.85;14.45;;;13.90;80.40;;;;;;4954609;29;20023;-81
2023/05/02 03:21:11;;;;;;;18.38;13.55;;;13.90;80.40;;;;;;4955603;29;20396;-80
2023/05/02 03:23:36;;;;;;;19.15;14.30;;;13.90;80.50;;;;;;4938469;29;20114;-81
2023/05/02 03:26:02;;;;;;;19.13;13.43;;;13.80;80.40;;;;;;4937400;29;20118;-84
2023/05/02 03:28:27;;;;;;;18.10;13.75;;;13.80;80.50;;;;;;4949478;29;20031;-86
2023/05/02 03:30:53;;;;;;;18.73;13.32;;;13.90;80.50;;;;;;4936355;29;20606;-83
2023/05/02 03:33:19;;;;;;;19.35;14.32;;;13.90;80.60;;;;;;4936002;29;20039;-84
2023/05/02 03:35:44;;;;;;;19.50;13.50;;;13.80;80.60;;;;;;4936090;29;20027;-83
2023/05/02 03:38:10;;;;;;;19.13;13.75;;;13.80;80.60;;;;;;4953502;29;20027;-83
2023/05/02 03:40:35;;;;;;;18.30;13.38;;;13.90;80.70;;;;;;4935116;29;20031;-84
2023/05/02 03:43:01;;;;;;;17.77;13.70;;;13.80;80.60;;;;;;4935958;29;20047;-84
2023/05/02 03:45:26;;;;;;;19.83;13.45;;;13.90;80.70;;;;;;4935793;29;20031;-83
2023/05/02 03:47:52;;;;;;;18.30;13.32;;;13.80;80.60;;;;;;4953142;29;20057;-84
2023/05/02 03:50:18;;;;;;;18.83;13.50;;;13.80;80.70;;;;;;4935491;29;20941;-83
2023/05/02 03:52:43;;;;;;;19.05;13.73;;;13.80;81.00;;;;;;4935416;29;20027;-84
2023/05/02 03:55:09;;;;;;;21.63;14.20;;;13.80;80.70;;;;;;4935019;29;20035;-84
2023/05/02 03:57:34;;;;;;;19.17;13.40;;;13.80;80.70;;;;;;4934808;29;20058;-82
2023/05/02 04:00:00;;;;;;;18.30;12.98;;;13.90;80.80;;;;;;4935204;29;20053;-82
2023/05/02 04:02:25;;;;;;;17.95;13.10;;;13.80;80.80;;;;;;4934621;29;20023;-84
2023/05/02 04:04:51;;;;;;;20.17;13.70;;;13.90;80.80;;;;;;4935059;29;20476;-84
2023/05/02 04:07:20;;;;;;;17.73;13.73;;;13.80;80.80;;;;;;4933786;29;20147;-85
2023/05/02 04:09:45;;;;;;;19.42;13.50;;;13.90;80.90;;;;;;4932523;29;20066;-82
2023/05/02 04:12:11;;;;;;;19.52;14.00;;;13.80;80.90;;;;;;4934846;28;20051;-84
2023/05/02 04:14:37;;;;;;;19.23;13.55;;;13.80;80.90;;;;;;4935014;29;20027;-83
2023/05/02 04:17:02;;;;;;;18.30;13.10;;;13.80;81.00;;;;;;4952334;29;20463;-82
2023/05/02 04:19:28;;;;;;;19.58;13.38;;;13.80;81.00;;;;;;4952478;29;20031;-81
2023/05/02 04:21:54;;;;;;;18.42;13.57;;;13.80;81.10;;;;;;4933718;29;20027;-81
2023/05/02 04:24:19;;;;;;;19.17;12.98;;;13.70;81.00;;;;;;4951578;29;20027;-80
2023/05/02 04:26:46;;;;;;;18.25;13.60;;;13.80;81.20;;;;;;4951974;29;20030;-81
2023/05/02 04:29:12;;;;;;;18.33;13.20;;;13.90;81.30;;;;;;4952143;28;20023;-81
2023/05/02 04:31:38;;;;;;;19.80;13.30;;;13.80;81.30;;;;;;4950135;29;20419;-81
2023/05/02 04:34:03;;;;;;;18.58;13.30;;;13.80;81.30;;;;;;4949720;29;20031;-81
2023/05/02 04:36:33;;;;;;;17.98;12.90;;;13.80;81.30;;;;;;4951334;29;20042;-81
2023/05/02 04:38:59;;;;;;;18.35;13.50;;;13.80;81.30;;;;;;4950159;29;20027;-80
2023/05/02 04:41:24;;;;;;;17.90;12.77;;;13.80;81.40;;;;;;4950086;29;20035;-81
2023/05/02 04:43:50;;;;;;;18.25;13.35;;;13.80;81.50;;;;;;4950130;29;20024;-81
2023/05/02 04:46:19;;;;;;;19.42;13.38;;;13.80;81.60;;;;;;4950176;29;20030;-80
2023/05/02 04:48:45;;;;;;;18.08;13.15;;;13.90;81.70;;;;;;4950142;29;20122;-81
2023/05/02 04:51:10;;;;;;;19.83;12.75;;;13.90;81.70;;;;;;4951053;29;20106;-80
2023/05/02 04:53:36;;;;;;;19.45;12.70;;;13.80;81.70;;;;;;4951313;29;20886;-79
2023/05/02 04:56:02;;;;;;;17.77;12.50;;;13.80;81.70;;;;;;4950126;29;20071;-82
2023/05/02 04:58:27;;;;;;;15.20;11.23;;;13.80;81.70;;;;;;4950156;29;20130;-81
2023/05/02 05:00:53;;;;;;;16.60;11.52;;;13.80;81.80;;;;;;4949800;29;20027;-81
2023/05/02 05:03:19;;;;;;;18.25;11.57;;;13.80;81.80;;;;;;4950775;28;20031;-80
2023/05/02 05:05:45;;;;;;;15.70;11.07;;;13.90;81.90;;;;;;4951263;28;20106;-83
2023/05/02 05:08:10;;;;;;;16.35;10.82;;;13.80;81.90;;;;;;4950043;29;20023;-81
2023/05/02 05:10:36;;;;;;;15.07;11.05;;;13.80;81.90;;;;;;4949822;29;20503;-81
2023/05/02 05:13:03;;;;;;;14.55;10.13;;;13.80;81.80;;;;;;4951231;29;20043;-83
2023/05/02 05:15:28;;;;;;;15.45;9.80;;;13.80;81.80;;;;;;4951650;28;20496;-81
2023/05/02 05:17:54;;;;;;;12.05;7.95;;;13.80;81.80;;;;;;4949962;29;20039;-82
2023/05/02 05:20:19;;;;;;;11.27;8.02;;;13.80;81.80;;;;;;4950144;29;20031;-81
2023/05/02 05:22:45;;;;;;;11.98;7.60;;;13.80;81.70;;;;;;4950220;29;20101;-83
2023/05/02 05:25:10;;;;;;;10.20;6.18;;;13.80;81.70;;;;;;4993855;23;20195;-82
2023/05/02 05:27:36;;;;;;;9.93;6.80;;;13.80;81.70;;;;;;4924570;29;20461;-83
2023/05/02 05:30:03;;;;;;;9.93;6.32;;;13.80;81.70;;;;;;4924523;29;20095;-84
2023/05/02 05:32:29;;;;;;;9.50;5.32;;;13.80;81.60;;;;;;4924301;29;20103;-81
2023/05/02 05:34:54;;;;;;;12.50;5.38;;;13.80;81.60;;;;;;4924290;29;20055;-84
2023/05/02 05:37:20;;;;;;;11.70;4.93;;;13.80;81.50;;;;;;4923624;29;20028;-82
2023/05/02 05:39:46;;;;;;;8.68;4.32;;;13.80;81.50;;;;;;4940708;29;20064;-82
2023/05/02 05:42:12;;;;;;;9.18;4.60;;;13.80;81.50;;;;;;4940041;29;20032;-83
2023/05/02 05:44:38;;;;;;;7.10;3.78;;;13.80;81.40;;;;;;4921876;29;20047;-84
2023/05/02 05:47:03;;;;;;;8.02;3.65;;;13.80;81.40;;;;;;4921948;29;20032;-83
2023/05/02 05:49:29;;;;;;;7.05;3.78;;;13.80;81.40;;;;;;4921893;29;20511;-82
2023/05/02 05:51:55;;;;;;;7.18;3.00;;;13.80;81.30;;;;;;4918762;29;20434;-82
2023/05/02 05:54:20;;;;;;;6.65;3.38;;;13.80;81.20;;;;;;4918676;29;20032;-83
2023/05/02 05:56:46;;;;;;;6.50;3.00;;;13.80;81.10;;;;;;4924141;29;20154;-83
2023/05/02 05:59:11;;;;;;;6.28;2.67;;;13.80;80.90;;;;;;4924820;29;20032;-84
2023/05/02 06:01:37;;;;;;;5.63;2.72;;;13.70;80.70;;;;;;4924565;29;20027;-82
2023/05/02 06:04:03;;;;;;;5.10;2.58;;;13.70;80.40;;;;;;4923654;29;20409;-82
2023/05/02 06:06:30;;;;;;;5.05;2.58;;;13.80;80.30;;;;;;4921086;29;20047;-82
2023/05/02 06:08:56;;;;;;;5.70;2.40;;;13.70;80.10;;;;;;4938437;29;20031;-82
2023/05/02 06:11:23;;;;;;;5.97;2.55;;;13.70;79.90;;;;;;4937992;29;20031;-82
2023/05/02 06:13:50;;;;;;;4.20;2.13;;;13.70;79.60;;;;;;4941180;29;20442;-82
2023/05/02 06:16:16;;;;;;;5.07;2.15;;;13.70;79.30;;;;;;4922448;29;20035;-83
2023/05/02 06:18:42;;;;;;;5.07;2.10;;;13.70;79.10;;;;;;4923244;29;20027;-82
2023/05/02 06:21:08;;;;;;;6.03;2.15;;;13.70;79.00;;;;;;4940059;29;20024;-82
2023/05/02 06:23:33;;;;;;;4.53;1.98;;;13.70;78.70;;;;;;4938712;29;20385;-83
2023/05/02 06:26:01;;;;;;;5.22;1.98;;;13.70;78.50;;;;;;4937197;29;20035;-82
2023/05/02 06:28:27;;;;;;;5.53;2.00;;;13.70;78.40;;;;;;4920640;29;20035;-82
2023/05/02 06:31:04;;;;;;;4.25;2.03;;;13.60;78.30;;;;;;4922162;29;20548;-83
2023/05/02 06:33:31;;;;;;;5.15;2.40;;;13.70;78.30;;;;;;4936848;29;20031;-83
2023/05/02 06:35:57;;;;;;;5.85;2.20;;;13.70;77.90;;;;;;4920463;29;20062;-82
2023/05/02 06:38:23;;;;;;;5.47;2.05;;;13.70;77.80;;;;;;4937084;29;20071;-82
2023/05/02 06:40:49;;;;;;;5.60;2.25;;;13.70;77.80;;;;;;4937629;29;20080;-83
2023/05/02 06:43:15;;;;;;;5.07;2.10;;;13.70;77.90;;;;;;4920822;29;20023;-83
2023/05/02 06:45:41;;;;;;;4.97;2.50;;;13.70;77.40;;;;;;4921690;29;20560;-82
2023/05/02 06:48:07;;;;;;;5.90;2.20;;;13.70;77.40;;;;;;4919812;29;20038;-82
2023/05/02 06:50:33;;;;;;;4.43;1.90;;;13.70;77.40;;;;;;4919859;29;20504;-82
2023/05/02 06:52:58;;;;;;;6.10;2.45;;;13.70;77.40;;;;;;4920228;29;20036;-82
2023/05/02 06:55:24;;;;;;;6.53;2.22;;;13.70;77.40;;;;;;4935728;29;20047;-82
2023/05/02 06:57:50;;;;;;;7.25;2.50;;;13.70;77.30;;;;;;4921464;29;20571;-82
2023/05/02 07:00:17;;;;;;;6.00;2.25;;;13.70;77.10;;;;;;4937043;29;20392;-82
2023/05/02 07:02:44;;;;;;;6.72;2.38;;;13.70;77.10;;;;;;4936880;29;20024;-82
2023/05/02 07:05:10;;;;;;;6.57;2.45;;;13.70;76.70;;;;;;4919662;29;20079;-83
2023/05/02 07:07:35;;;;;;;7.55;2.72;;;13.70;76.70;;;;;;4935556;29;20032;-82
2023/05/02 07:10:02;;;;;;;6.38;2.30;;;13.70;76.40;;;;;;4937104;29;20039;-82
2023/05/02 07:12:28;;;;;;;7.03;2.65;;;13.70;76.50;;;;;;4936281;29;20030;-82
2023/05/02 07:14:53;;;;;;;9.27;2.80;;;13.70;76.60;;;;;;4936823;29;20111;-82
2023/05/02 07:17:18;;;;;;;6.93;2.65;;;13.70;75.80;;;;;;4919241;29;20118;-82
2023/05/02 07:19:44;;;;;;;8.52;2.67;;;13.70;75.70;;;;;;4936263;29;20028;-82
2023/05/02 07:22:09;;;;;;;7.70;2.53;;;13.70;75.60;;;;;;4919143;29;20067;-82
2023/05/02 07:24:39;;;;;;;7.93;2.58;;;13.70;75.50;;;;;;4919271;29;20480;-82
2023/05/02 07:27:05;;;;;;;8.20;2.95;;;13.70;75.30;;;;;;4935040;29;20030;-80
2023/05/02 07:29:30;;;;;;;8.10;2.40;;;13.70;75.10;;;;;;4935167;29;20409;-82
2023/05/02 07:31:56;;;;;;;9.45;2.90;;;13.70;75.10;;;;;;4919269;29;20485;-82
2023/05/02 07:34:21;;;;;;;7.68;2.90;;;13.70;74.90;;;;;;4919020;29;20054;-82
2023/05/02 07:36:46;;;;;;;7.90;3.03;;;13.70;74.80;;;;;;4935920;29;20031;-82
2023/05/02 07:39:12;;;;;;;8.35;2.80;;;13.70;74.40;;;;;;4919061;29;20035;-82
2023/05/02 07:41:37;;;;;;;9.50;3.25;;;13.70;74.30;;;;;;4936312;29;20032;-82
2023/05/02 07:44:03;;;;;;;10.02;3.20;;;13.70;74.40;;;;;;4940873;29;20061;-84
2023/05/02 07:46:29;;;;;;;8.52;2.78;;;13.70;74.20;;;;;;4944045;29;20024;-83
2023/05/02 07:48:54;;;;;;;9.75;3.30;;;13.70;74.10;;;;;;4926739;29;20476;-83
2023/05/02 07:51:20;;;;;;;8.50;3.25;;;13.70;73.90;;;;;;4926953;29;20024;-83
2023/05/02 07:53:49;;;;;;;10.18;3.47;;;13.70;74.00;;;;;;4926958;29;20051;-84
2023/05/02 07:56:14;;;;;;;12.38;3.13;;;13.70;73.80;;;;;;4926121;29;20056;-84
2023/05/02 07:58:40;;;;;;;11.50;3.22;;;13.70;73.70;;;;;;4943579;29;20024;-82
2023/05/02 08:01:05;;;;;;;9.23;2.90;;;13.70;73.70;;;;;;4925456;29;20027;-83
2023/05/02 08:03:31;;;;;;;10.18;3.50;;;13.70;73.40;;;;;;4925809;29;20118;-84
2023/05/02 08:05:56;;;;;;;9.15;3.58;;;13.70;73.50;;;;;;4924925;29;20094;-83
2023/05/02 08:08:22;;;;;;;10.02;3.50;;;13.70;73.10;;;;;;4925232;29;20059;-84
2023/05/02 08:10:50;;;;;;;9.93;3.03;;;13.60;73.10;;;;;;4941746;29;20043;-83
2023/05/02 08:13:15;;;;;;;11.40;3.47;;;13.70;73.00;;;;;;4924194;29;20489;-83
2023/05/02 08:15:41;;;;;;;10.95;3.25;;;13.60;72.80;;;;;;4924067;29;20036;-82
2023/05/02 08:18:06;;;;;;;11.68;3.70;;;13.60;72.60;;;;;;4923870;29;20038;-83
2023/05/02 08:20:32;;;;;;;10.63;3.53;;;13.60;72.70;;;;;;4923543;29;20023;-83
2023/05/02 08:22:57;;;;;;;12.00;3.70;;;13.70;72.60;;;;;;4923706;29;20086;-82
2023/05/02 08:25:23;;;;;;;11.23;4.10;;;13.60;72.60;;;;;;4922870;29;20047;-82
2023/05/02 08:27:48;;;;;;;11.73;3.95;;;13.60;72.60;;;;;;4923043;29;20020;-82
2023/05/02 08:30:14;;;;;;;10.88;3.70;;;13.60;72.40;;;;;;4938255;29;20028;-83
2023/05/02 08:32:39;;;;;;;9.90;3.53;;;13.60;72.20;;;;;;4939463;29;20039;-83
2023/05/02 08:35:05;;;;;;;10.55;2.97;;;13.60;72.10;;;;;;4922917;29;20036;-83
2023/05/02 08:37:31;;;;;;;11.85;3.50;;;13.60;71.80;;;;;;4943155;29;20459;-83
2023/05/02 08:39:56;;;;;;;10.52;3.20;;;13.60;71.30;;;;;;4926318;29;20020;-83
2023/05/02 08:42:22;;;;;;;10.88;3.20;;;13.60;71.50;;;;;;4942206;29;20027;-83
2023/05/02 08:44:48;;;;;;;11.95;3.17;;;13.60;70.70;;;;;;4941200;29;20027;-83
2023/05/02 08:47:14;;;;;;;8.85;3.00;;;13.70;70.50;;;;;;4925409;29;20030;-84
2023/05/02 08:49:41;;;;;;;12.13;3.17;;;13.70;70.30;;;;;;4942648;29;20066;-83
2023/05/02 08:52:09;;;;;;;8.57;2.65;;;13.70;70.00;;;;;;4924814;29;20039;-82
2023/05/02 08:54:36;;;;;;;8.55;2.47;;;13.70;70.00;;;;;;4924372;29;20028;-83
2023/05/02 08:57:03;;;;;;;10.27;2.70;;;13.70;70.30;;;;;;4924626;29;20024;-82
2023/05/02 08:59:30;;;;;;;9.35;2.78;;;13.70;69.70;;;;;;4917614;29;20028;-82
2023/05/02 09:02:02;;;;;;;7.78;2.35;;;13.70;69.50;;;;;;4939638;29;20056;-83
2023/05/02 09:04:31;;;;;;;8.25;2.70;;;13.70;69.30;;;;;;4940886;29;20030;-82
2023/05/02 09:06:57;;;;;;;8.68;2.75;;;13.70;69.40;;;;;;4924088;29;20020;-83
2023/05/02 09:09:23;;;;;;;7.43;2.40;;;13.70;69.30;;;;;;4923475;29;20285;-82
2023/05/02 09:11:50;;;;;;;8.35;2.50;;;13.70;69.20;;;;;;4940264;29;20030;-83
2023/05/02 09:14:16;;;;;;;10.32;2.80;;;13.70;69.30;;;;;;4939743;29;20031;-82
2023/05/02 09:16:42;;;;;;;6.32;2.35;;;13.70;69.10;;;;;;4934642;29;20099;-83
2023/05/02 09:19:08;;;;;;;9.88;2.45;;;13.70;68.90;;;;;;4938209;29;20028;-83
2023/05/02 09:21:36;;;;;;;9.38;2.53;;;13.70;68.80;;;;;;4922866;29;20027;-82
2023/05/02 09:24:14;;;;;;;7.28;2.38;;;13.80;68.70;;;;;;4922733;29;20023;-83
2023/05/02 09:26:40;;;;;;;7.90;2.30;;;13.70;68.60;;;;;;4922419;29;20042;-83
2023/05/02 09:29:05;;;;;;;8.93;2.45;;;13.70;68.40;;;;;;4939211;29;20507;-82
2023/05/02 09:31:35;;;;;;;7.80;2.35;;;13.80;68.40;;;;;;4924012;29;20466;-83
2023/05/02 09:34:15;;;;;;;7.28;2.00;;;13.70;68.30;;;;;;4943037;29;20024;-83
2023/05/02 09:36:42;;;;;;;7.18;2.30;;;13.80;68.20;;;;;;4925206;29;20035;-82
2023/05/02 09:39:10;;;;;;;7.65;2.17;;;13.80;68.10;;;;;;4924618;29;20039;-83
2023/05/02 09:41:42;;;;;;;5.90;2.00;;;13.80;68.10;;;;;;4941590;29;20066;-82
2023/05/02 09:44:12;;;;;;;6.00;1.92;;;13.80;68.10;;;;;;4939747;29;20024;-83
2023/05/02 09:46:42;;;;;;;6.10;1.90;;;13.80;67.90;;;;;;4940210;29;20513;-82
2023/05/02 09:49:11;;;;;;;5.68;1.92;;;13.80;67.80;;;;;;4924089;29;20090;-83
2023/05/02 09:51:37;;;;;;;7.13;1.90;;;13.80;67.90;;;;;;4924157;29;20034;-83
2023/05/02 09:54:03;;;;;;;9.10;2.40;;;13.80;67.70;;;;;;4941367;29;20027;-82
2023/05/02 09:56:28;;;;;;;6.10;1.77;;;13.80;67.60;;;;;;4923258;29;20515;-84
2023/05/02 09:59:14;;;;;;;6.25;2.30;;;13.80;67.60;;;;;;4923364;29;20035;-82
2023/05/02 10:01:43;;;;;;;8.75;2.03;;;13.80;67.60;;;;;;4937559;29;20102;-82
2023/05/02 10:04:15;;;;;;;7.38;2.40;;;13.80;67.40;;;;;;4921271;29;20035;-82
2023/05/02 10:06:42;;;;;;;7.03;2.30;;;13.80;67.40;;;;;;4937800;29;20026;-82
2023/05/02 10:09:10;;;;;;;6.25;2.08;;;13.80;67.40;;;;;;4920552;29;20042;-82
2023/05/02 10:11:38;;;;;;;7.78;2.20;;;13.80;67.30;;;;;;4922092;29;20027;-83
2023/05/02 10:14:08;;;;;;;7.50;2.67;;;13.80;67.40;;;;;;4939712;29;20034;-82
2023/05/02 10:16:37;;;;;;;7.28;2.63;;;13.80;67.50;;;;;;4920471;29;20038;-82
2023/05/02 10:19:08;;;;;;;9.43;2.38;;;13.80;67.40;;;;;;4920345;29;20028;-83
2023/05/02 10:21:34;;;;;;;8.85;2.65;;;13.90;67.60;;;;;;4920303;29;20035;-82
2023/05/02 10:24:02;;;;;;;7.05;2.70;;;13.90;67.50;;;;;;4920831;29;20032;-82
2023/05/02 10:26:28;;;;;;;7.30;2.70;;;13.90;67.60;;;;;;4920100;29;20031;-82
2023/05/02 10:28:55;;;;;;;7.85;2.50;;;13.90;67.60;;;;;;4920463;29;20031;-82
2023/05/02 10:31:21;;;;;;;8.68;2.85;;;13.90;67.70;;;;;;4920032;29;20066;-83
2023/05/02 10:33:50;;;;;;;10.07;2.83;;;13.80;67.50;;;;;;4920760;29;20126;-82
2023/05/02 10:36:22;;;;;;;7.75;2.55;;;13.80;67.30;;;;;;4919875;29;20109;-82
2023/05/02 10:38:49;;;;;;;8.73;2.55;;;13.80;67.30;;;;;;4920270;29;20115;-83
2023/05/02 10:41:19;;;;;;;7.50;2.72;;;13.80;67.20;;;;;;4920022;29;20034;-82
2023/05/02 10:43:47;;;;;;;8.38;2.83;;;13.80;66.90;;;;;;4920792;29;20378;-81
2023/05/02 10:46:36;;;;;;;7.72;2.58;;;13.80;66.90;;;;;;4919921;29;20035;-82
2023/05/02 10:49:12;;;;;;;8.20;2.42;;;13.90;67.00;;;;;;4920396;29;20393;-82
2023/05/02 10:51:40;;;;;;;9.57;3.15;;;13.90;67.00;;;;;;4920539;29;20501;-82
2023/05/02 10:54:18;;;;;;;7.30;2.40;;;13.90;66.70;;;;;;4920359;29;20032;-82
2023/05/02 10:57:05;;;;;;;9.57;3.00;;;13.90;66.70;;;;;;4919895;29;20038;-82
2023/05/02 10:59:38;;;;;;;7.88;2.75;;;13.90;66.70;;;;;;4919492;29;20035;-82
2023/05/02 11:02:20;;;;;;;7.72;2.80;;;13.90;66.70;;;;;;4919600;29;20032;-81
2023/05/02 11:05:03;;;;;;;8.05;2.67;;;13.90;66.50;;;;;;4919468;29;20401;-82
2023/05/02 11:07:30;;;;;;;7.13;2.58;;;13.90;66.30;;;;;;4919294;29;20059;-82
2023/05/02 11:10:17;;;;;;;8.45;2.88;;;13.90;66.30;;;;;;4919506;29;20091;-82
2023/05/02 11:12:44;;;;;;;8.02;2.65;;;13.90;66.10;;;;;;4919485;29;20032;-82
2023/05/02 11:15:09;;;;;;;8.73;2.67;;;13.90;65.90;;;;;;4919208;29;20026;-80
2023/05/02 11:17:57;;;;;;;7.50;2.63;;;13.80;65.80;;;;;;4935091;29;20473;-83
2023/05/02 11:20:23;;;;;;;6.75;2.50;;;13.80;65.80;;;;;;4919045;29;20293;-82
2023/05/02 11:22:49;;;;;;;10.48;3.50;;;13.90;65.60;;;;;;4923161;29;20492;-84
2023/05/02 11:25:35;;;;;;;7.70;2.80;;;13.80;65.50;;;;;;4949470;23;20071;-80
2023/05/02 11:28:02;;;;;;;7.65;2.80;;;13.90;65.60;;;;;;4919212;29;20036;-81
2023/05/02 11:30:37;;;;;;;6.82;2.78;;;13.80;65.60;;;;;;4918901;29;20035;-83
2023/05/02 11:33:03;;;;;;;7.68;2.75;;;13.80;65.60;;;;;;4919118;29;20396;-81
2023/05/02 11:35:30;;;;;;;8.43;2.33;;;13.90;65.30;;;;;;4918851;29;20028;-80
2023/05/02 11:38:09;;;;;;;6.93;2.40;;;13.90;65.30;;;;;;4935909;29;20027;-80
2023/05/02 11:40:35;;;;;;;7.25;2.42;;;13.80;65.50;;;;;;4918834;29;20046;-81
2023/05/02 11:43:15;;;;;;;7.68;2.60;;;13.80;65.30;;;;;;4918853;29;20477;-81
2023/05/02 11:45:44;;;;;;;7.97;2.33;;;13.90;65.30;;;;;;4918754;29;20020;-82
2023/05/02 11:48:12;;;;;;;5.75;2.28;;;13.90;64.90;;;;;;4935727;29;20032;-80
2023/05/02 11:50:44;;;;;;;6.95;2.67;;;13.80;64.80;;;;;;4918531;29;20063;-81
2023/05/02 11:53:11;;;;;;;7.93;2.83;;;13.90;64.70;;;;;;4917963;29;20078;-80
2023/05/02 11:55:37;;;;;;;8.45;3.22;;;13.80;64.60;;;;;;4918248;29;20023;-81
2023/05/02 11:58:03;;;;;;;6.55;2.50;;;13.90;64.50;;;;;;4935428;29;20043;-81
2023/05/02 12:00:28;;;;;;;8.18;2.75;;;13.90;64.50;;;;;;4918295;29;20027;-81
2023/05/02 12:02:54;;;;;;;9.82;2.70;;;13.90;64.40;;;;;;4918551;29;20027;-81
2023/05/02 12:05:28;;;;;;;7.15;2.72;;;13.90;64.30;;;;;;4918416;29;20030;-81
2023/05/02 12:07:54;;;;;;;7.30;2.95;;;13.80;64.30;;;;;;4918422;29;20050;-81
2023/05/02 12:10:19;;;;;;;7.93;2.80;;;13.90;64.20;;;;;;4917880;29;20426;-81
2023/05/02 12:12:45;;;;;;;7.55;2.88;;;13.90;64.20;;;;;;4918274;29;20027;-81
2023/05/02 12:15:11;;;;;;;9.93;3.08;;;13.90;64.20;;;;;;4935161;29;20388;-81
2023/05/02 12:17:40;;;;;;;6.72;2.40;;;13.90;64.10;;;;;;4918055;29;20468;-81
2023/05/02 12:20:07;;;;;;;7.50;2.92;;;13.90;64.00;;;;;;4918018;29;20083;-79
2023/05/02 12:22:33;;;;;;;7.50;2.58;;;13.90;63.70;;;;;;4935223;29;20024;-81
2023/05/02 12:24:59;;;;;;;8.55;2.35;;;13.90;63.80;;;;;;4917904;29;20024;-81
2023/05/02 12:27:26;;;;;;;6.82;2.50;;;13.90;64.30;;;;;;4917905;29;20043;-79
2023/05/02 12:29:52;;;;;;;7.18;3.08;;;13.90;64.20;;;;;;4918092;29;20401;-81
2023/05/02 12:32:28;;;;;;;10.20;3.05;;;13.90;64.60;;;;;;4917691;29;20115;-79
2023/05/02 12:34:54;;;;;;;8.60;2.60;;;13.90;63.80;;;;;;4918330;29;20038;-81
2023/05/02 12:37:24;;;;;;;7.93;2.55;;;13.90;64.50;;;;;;4917770;29;20126;-81
2023/05/02 12:39:50;;;;;;;6.47;2.70;;;13.90;64.50;;;;;;4934858;29;20035;-81
2023/05/02 12:42:16;;;;;;;6.65;2.50;;;13.90;63.70;;;;;;4918017;29;20130;-81
2023/05/02 12:44:47;;;;;;;7.97;3.00;;;14.00;64.00;;;;;;4917812;29;20122;-79